createdAt,value
2019-04-03T00:01:41.581Z,2.78
2019-04-03T00:04:10.197Z,2.76
2019-04-03T00:06:38.813Z,2.74
2019-04-03T00:09:08.419Z,2.73
2019-04-03T00:11:39.751Z,2.71
2019-04-03T00:14:07.982Z,2.69
2019-04-03T00:16:36.634Z,2.70
2019-04-03T00:19:05.237Z,2.68
2019-04-03T00:21:33.704Z,2.69
2019-04-03T00:24:02.325Z,2.67
2019-04-03T00:26:31.149Z,2.69
2019-04-03T00:28:59.730Z,2.71
2019-04-03T00:31:28.390Z,2.68
2019-04-03T00:33:57.049Z,2.67
2019-04-03T00:36:25.672Z,2.63
2019-04-03T00:38:54.760Z,2.60
2019-04-03T00:41:24.728Z,2.59
2019-04-03T00:43:54.456Z,2.57
2019-04-03T00:46:24.475Z,2.60
2019-04-03T00:48:55.562Z,2.60
2019-04-03T00:51:24.035Z,2.60
2019-04-03T00:53:52.798Z,2.57
2019-04-03T00:56:21.313Z,2.55
2019-04-03T00:58:50.018Z,2.56
2019-04-03T01:01:18.651Z,2.53
2019-04-03T01:03:47.219Z,2.53
2019-04-03T01:06:15.916Z,2.50
2019-04-03T01:08:44.491Z,2.52
2019-04-03T01:11:13.011Z,2.50
2019-04-03T01:13:41.685Z,2.44
2019-04-03T01:16:10.335Z,2.43
2019-04-03T01:18:39.020Z,2.43
2019-04-03T01:21:07.706Z,2.44
2019-04-03T01:23:37.797Z,2.43
2019-04-03T01:26:09.255Z,2.43
2019-04-03T01:28:36.947Z,2.42
2019-04-03T01:31:05.583Z,2.40
2019-04-03T01:33:34.177Z,2.39
2019-04-03T01:36:02.802Z,2.37
2019-04-03T01:38:31.355Z,2.38
2019-04-03T01:40:59.854Z,2.37
2019-04-03T01:43:28.361Z,2.34
2019-04-03T01:45:57.315Z,2.32
2019-04-03T01:48:26.880Z,2.30
2019-04-03T01:50:57.775Z,2.28
2019-04-03T01:53:26.737Z,2.28
2019-04-03T01:55:55.383Z,2.24
2019-04-03T01:58:24.231Z,2.21
2019-04-03T02:00:52.840Z,2.20
2019-04-03T02:03:21.438Z,2.18
2019-04-03T02:05:49.914Z,2.16
2019-04-03T02:08:18.450Z,2.17
2019-04-03T02:10:48.912Z,2.15
2019-04-03T02:13:17.399Z,2.15
2019-04-03T02:15:46.133Z,2.15
2019-04-03T02:18:14.759Z,2.14
2019-04-03T02:20:43.373Z,2.13
2019-04-03T02:23:11.911Z,2.12
2019-04-03T02:25:40.494Z,2.12
2019-04-03T02:28:08.987Z,2.12
2019-04-03T02:30:37.526Z,2.09
2019-04-03T02:33:06.167Z,2.09
2019-04-03T02:35:34.800Z,2.08
2019-04-03T02:38:03.600Z,2.07
2019-04-03T02:40:33.109Z,2.05
2019-04-03T02:43:01.734Z,2.05
2019-04-03T02:45:30.548Z,2.03
2019-04-03T02:47:59.195Z,2.01
2019-04-03T02:50:28.407Z,1.97
2019-04-03T02:52:58.684Z,1.95
2019-04-03T02:55:27.317Z,1.94
2019-04-03T02:57:55.793Z,1.93
2019-04-03T03:00:24.393Z,1.92
2019-04-03T03:02:52.924Z,1.87
2019-04-03T03:05:21.489Z,1.87
2019-04-03T03:07:51.979Z,1.90
2019-04-03T03:10:20.724Z,1.90
2019-04-03T03:12:49.797Z,1.92
2019-04-03T03:15:20.201Z,1.91
2019-04-03T03:17:52.496Z,1.96
2019-04-03T03:20:23.847Z,1.99
2019-04-03T03:22:52.547Z,2.01
2019-04-03T03:25:21.850Z,2.04
2019-04-03T03:27:51.186Z,2.06
2019-04-03T03:30:35.686Z,2.07
2019-04-03T03:32:50.617Z,2.12
2019-04-03T03:35:28.490Z,2.13
2019-04-03T03:37:51.035Z,2.19
2019-04-03T03:40:20.296Z,2.20
2019-04-03T03:42:50.676Z,2.24
2019-04-03T03:45:21.664Z,2.26
2019-04-03T03:47:51.299Z,2.29
2019-04-03T03:50:24.513Z,2.33
2019-04-03T03:52:54.865Z,2.35
2019-04-03T03:55:25.523Z,2.37
2019-04-03T03:57:55.384Z,2.38
2019-04-03T04:00:24.784Z,2.40
2019-04-03T04:02:54.149Z,2.45
2019-04-03T04:05:23.094Z,2.48
2019-04-03T04:07:52.190Z,2.52
2019-04-03T04:10:24.059Z,2.56
2019-04-03T04:12:51.674Z,2.61
2019-04-03T04:15:20.312Z,2.64
2019-04-03T04:17:51.001Z,2.65
2019-04-03T04:20:19.224Z,2.63
2019-04-03T04:22:50.472Z,2.62
2019-04-03T04:25:19.205Z,2.64
2019-04-03T04:27:48.884Z,2.64
2019-04-03T04:30:19.034Z,2.66
2019-04-03T04:32:47.658Z,2.65
2019-04-03T04:35:16.358Z,2.64
2019-04-03T04:37:44.940Z,2.64
2019-04-03T04:40:13.563Z,2.63
2019-04-03T04:42:42.171Z,2.61
2019-04-03T04:45:11.833Z,2.64
2019-04-03T04:47:41.335Z,2.66
2019-04-03T04:50:09.948Z,2.70
2019-04-03T04:52:38.420Z,2.74
2019-04-03T04:55:07.417Z,2.76
2019-04-03T04:57:35.890Z,2.81
2019-04-03T05:00:07.235Z,2.85
2019-04-03T05:02:35.867Z,2.90
2019-04-03T05:05:08.687Z,2.93
2019-04-03T05:07:36.848Z,2.99
2019-04-03T05:10:06.715Z,3.05
2019-04-03T05:12:35.493Z,3.10
2019-04-03T05:15:04.548Z,3.17
2019-04-03T05:17:33.210Z,3.26
2019-04-03T05:20:01.938Z,3.37
2019-04-03T05:22:30.561Z,3.51
2019-04-03T05:24:59.963Z,3.70
2019-04-03T05:27:29.074Z,3.91
2019-04-03T05:29:57.709Z,4.15
2019-04-03T05:32:26.344Z,4.39
2019-04-03T05:34:54.877Z,4.64
2019-04-03T05:37:24.557Z,4.88
2019-04-03T05:39:55.632Z,5.14
2019-04-03T05:42:23.520Z,5.40
2019-04-03T05:44:52.175Z,5.67
2019-04-03T05:47:20.767Z,5.93
2019-04-03T05:49:51.266Z,6.21
2019-04-03T05:52:19.811Z,6.42
2019-04-03T05:54:48.484Z,6.66
2019-04-03T05:57:17.613Z,6.89
2019-04-03T05:59:59.116Z,7.15
2019-04-03T06:02:20.165Z,7.39
2019-04-03T06:04:46.969Z,7.64
2019-04-03T06:07:17.478Z,7.86
2019-04-03T06:09:45.854Z,8.09
2019-04-03T06:12:15.212Z,8.32
2019-04-03T06:14:44.623Z,8.53
2019-04-03T06:17:13.322Z,8.76
2019-04-03T06:19:41.960Z,8.99
2019-04-03T06:22:10.799Z,9.12
2019-04-03T06:24:39.499Z,9.23
2019-04-03T06:27:10.088Z,9.37
2019-04-03T06:29:38.385Z,9.48
2019-04-03T06:32:07.126Z,9.65
2019-04-03T06:34:38.064Z,9.79
2019-04-03T06:37:06.882Z,9.94
2019-04-03T06:39:35.651Z,10.09
2019-04-03T06:42:04.595Z,10.28
2019-04-03T06:44:33.133Z,10.44
2019-04-03T06:47:02.045Z,10.56
2019-04-03T06:49:30.664Z,10.69
2019-04-03T06:51:59.134Z,10.85
2019-04-03T06:54:31.144Z,10.95
2019-04-03T06:56:59.441Z,11.10
2019-04-03T06:59:28.050Z,11.25
2019-04-03T07:01:56.587Z,11.41
2019-04-03T07:04:25.136Z,11.49
2019-04-03T07:06:55.871Z,11.60
2019-04-03T07:09:34.134Z,11.79
2019-04-03T07:11:57.614Z,12.06
2019-04-03T07:14:27.172Z,12.30
2019-04-03T07:16:56.030Z,12.42
2019-04-03T07:19:24.574Z,12.49
2019-04-03T07:21:55.187Z,12.59
2019-04-03T07:24:23.560Z,12.64
2019-04-03T07:26:52.105Z,12.86
2019-04-03T07:29:20.742Z,13.01
2019-04-03T07:31:49.360Z,12.96
2019-04-03T07:34:17.901Z,12.88
2019-04-03T07:36:46.801Z,12.96
2019-04-03T07:39:15.327Z,13.03
2019-04-03T07:41:44.144Z,13.10
2019-04-03T07:44:12.719Z,13.07
2019-04-03T07:46:41.374Z,12.95
2019-04-03T07:49:10.490Z,12.88
2019-04-03T07:51:39.329Z,12.87
2019-04-03T07:54:07.941Z,12.91
2019-04-03T07:56:36.902Z,13.12
2019-04-03T07:59:05.512Z,13.36
2019-04-03T08:01:34.084Z,13.46
2019-04-03T08:04:02.694Z,13.42
2019-04-03T08:06:33.012Z,13.40
2019-04-03T08:09:08.273Z,13.41
2019-04-03T08:11:32.827Z,13.44
2019-04-03T08:14:02.114Z,13.44
2019-04-03T08:16:30.589Z,13.52
2019-04-03T08:18:59.241Z,13.66
2019-04-03T08:21:29.988Z,13.77
2019-04-03T08:23:58.269Z,14.04
2019-04-03T08:26:27.458Z,14.26
2019-04-03T08:28:56.489Z,14.53
2019-04-03T08:31:24.988Z,14.70
2019-04-03T08:33:53.590Z,14.78
2019-04-03T08:36:24.957Z,14.93
2019-04-03T08:38:52.466Z,15.00
2019-04-03T08:41:22.134Z,15.09
2019-04-03T08:43:51.643Z,15.23
2019-04-03T08:46:20.578Z,15.41
2019-04-03T08:48:49.303Z,15.59
2019-04-03T08:51:18.015Z,15.77
2019-04-03T08:53:46.666Z,15.90
2019-04-03T08:56:17.120Z,16.08
2019-04-03T08:58:45.989Z,16.10
2019-04-03T09:01:14.982Z,16.06
2019-04-03T09:03:45.336Z,16.01
2019-04-03T09:06:14.098Z,16.13
2019-04-03T09:08:42.635Z,16.27
2019-04-03T09:11:14.079Z,16.37
2019-04-03T09:13:42.574Z,16.64
2019-04-03T09:16:11.109Z,16.82
2019-04-03T09:18:39.774Z,16.91
2019-04-03T09:21:08.450Z,17.11
2019-04-03T09:23:37.380Z,17.26
2019-04-03T09:26:06.003Z,17.41
2019-04-03T09:28:34.677Z,17.67
2019-04-03T09:31:03.652Z,17.83
2019-04-03T09:33:32.192Z,17.85
2019-04-03T09:36:03.702Z,17.78
2019-04-03T09:38:30.988Z,17.94
2019-04-03T09:40:59.658Z,18.19
2019-04-03T09:43:28.242Z,18.27
2019-04-03T09:45:59.317Z,18.46
2019-04-03T09:48:27.064Z,18.64
2019-04-03T09:50:55.678Z,18.77
2019-04-03T09:53:26.381Z,18.71
2019-04-03T09:55:54.801Z,18.53
2019-04-03T09:58:23.339Z,18.50
2019-04-03T10:00:51.952Z,18.63
2019-04-03T10:03:20.847Z,18.88
2019-04-03T10:05:50.874Z,18.98
2019-04-03T10:08:19.460Z,19.06
2019-04-03T10:10:48.327Z,19.01
2019-04-03T10:13:17.133Z,18.92
2019-04-03T10:15:45.816Z,18.98
2019-04-03T10:18:14.308Z,19.10
2019-04-03T10:20:44.329Z,19.02
2019-04-03T10:23:13.472Z,18.82
2019-04-03T10:25:42.143Z,18.66
2019-04-03T10:28:13.891Z,18.55
2019-04-03T10:30:41.128Z,18.36
2019-04-03T10:33:10.580Z,18.20
2019-04-03T10:35:39.861Z,18.22
2019-04-03T10:38:08.578Z,18.16
2019-04-03T10:40:37.127Z,18.24
2019-04-03T10:43:06.387Z,18.23
2019-04-03T10:45:35.888Z,18.16
2019-04-03T10:48:04.619Z,18.16
2019-04-03T10:50:33.163Z,18.12
2019-04-03T10:53:01.804Z,18.26
2019-04-03T10:55:30.481Z,18.33
2019-04-03T10:58:01.573Z,18.30
2019-04-03T11:00:29.903Z,18.45
2019-04-03T11:02:58.810Z,18.50
2019-04-03T11:05:27.432Z,18.50
2019-04-03T11:07:57.639Z,18.57
2019-04-03T11:10:26.305Z,18.49
2019-04-03T11:12:54.903Z,18.39
2019-04-03T11:15:23.576Z,18.31
2019-04-03T11:17:52.172Z,18.25
2019-04-03T11:20:21.089Z,18.26
2019-04-03T11:22:49.698Z,18.26
2019-04-03T11:25:18.378Z,18.38
2019-04-03T11:27:47.436Z,18.64
2019-04-03T11:30:23.388Z,18.67
2019-04-03T11:32:47.820Z,18.69
2019-04-03T11:35:16.908Z,18.80
2019-04-03T11:37:45.619Z,19.00
2019-04-03T11:40:17.337Z,19.16
2019-04-03T11:42:45.780Z,19.23
2019-04-03T11:45:16.122Z,19.30
2019-04-03T11:47:46.198Z,19.20
2019-04-03T11:50:17.270Z,19.00
2019-04-03T11:52:45.880Z,18.74
2019-04-03T11:55:14.621Z,18.61
2019-04-03T11:57:43.151Z,18.62
2019-04-03T12:00:15.576Z,18.45
2019-04-03T12:02:44.804Z,18.44
2019-04-03T12:05:19.874Z,18.50
2019-04-03T12:07:46.034Z,18.36
2019-04-03T12:10:14.687Z,18.20
2019-04-03T12:12:43.179Z,17.95
2019-04-03T12:15:15.685Z,17.92
2019-04-03T12:17:43.170Z,17.83
2019-04-03T12:20:15.317Z,17.46
2019-04-03T12:22:43.307Z,17.42
2019-04-03T12:25:12.424Z,17.34
2019-04-03T12:27:44.994Z,17.17
2019-04-03T12:30:11.526Z,16.93
2019-04-03T12:32:45.330Z,16.76
2019-04-03T12:35:11.311Z,16.58
2019-04-03T12:37:40.321Z,16.54
2019-04-03T12:40:09.480Z,16.47
2019-04-03T12:42:38.087Z,16.43
2019-04-03T12:45:08.517Z,16.45
2019-04-03T12:47:37.090Z,16.39
2019-04-03T12:50:07.662Z,16.29
2019-04-03T12:52:36.696Z,16.24
2019-04-03T12:55:08.633Z,16.21
2019-04-03T12:57:39.246Z,16.14
2019-04-03T13:00:12.925Z,15.97
2019-04-03T13:02:42.486Z,15.93
2019-04-03T13:05:11.233Z,15.89
2019-04-03T13:07:39.854Z,15.87
2019-04-03T13:10:10.304Z,15.73
2019-04-03T13:12:39.282Z,15.67
2019-04-03T13:15:10.553Z,15.60
2019-04-03T13:17:39.229Z,15.57
2019-04-03T13:20:09.208Z,15.53
2019-04-03T13:22:37.965Z,15.49
2019-04-03T13:25:10.700Z,15.48
2019-04-03T13:27:39.684Z,15.53
2019-04-03T13:30:11.914Z,15.48
2019-04-03T13:32:40.595Z,15.49
2019-04-03T13:35:09.659Z,15.52
2019-04-03T13:37:38.283Z,15.54
2019-04-03T13:40:09.176Z,15.55
2019-04-03T13:42:37.854Z,15.55
2019-04-03T13:45:09.457Z,15.43
2019-04-03T13:47:41.082Z,15.42
2019-04-03T13:50:10.690Z,15.43
2019-04-03T13:52:43.217Z,15.42
2019-04-03T13:55:10.195Z,15.32
2019-04-03T13:57:38.834Z,15.34
2019-04-03T14:00:18.730Z,15.39
2019-04-03T14:02:39.992Z,15.33
2019-04-03T14:05:09.767Z,15.34
2019-04-03T14:07:41.578Z,15.36
2019-04-03T14:10:11.083Z,15.39
2019-04-03T14:12:43.563Z,15.38
2019-04-03T14:15:10.183Z,15.36
2019-04-03T14:17:39.829Z,15.31
2019-04-03T14:20:10.031Z,15.32
2019-04-03T14:22:38.613Z,15.33
2019-04-03T14:25:19.349Z,15.36
2019-04-03T14:27:41.810Z,15.40
2019-04-03T14:30:11.983Z,15.34
2019-04-03T14:32:42.156Z,15.30
2019-04-03T14:35:41.263Z,15.27
2019-04-03T14:37:42.218Z,15.23
2019-04-03T14:40:13.458Z,15.20
2019-04-03T14:42:43.171Z,15.14
2019-04-03T14:45:14.426Z,15.05
2019-04-03T14:47:43.207Z,14.99
2019-04-03T14:50:12.369Z,14.94
2019-04-03T14:52:41.099Z,14.93
2019-04-03T14:55:18.040Z,14.91
2019-04-03T14:57:41.383Z,14.90
2019-04-03T15:00:24.798Z,14.93
2019-04-03T15:02:43.307Z,14.94
2019-04-03T15:05:12.031Z,14.92
2019-04-03T15:07:40.663Z,14.89
2019-04-03T15:10:10.708Z,14.83
2019-04-03T15:12:40.667Z,14.77
2019-04-03T15:15:11.012Z,14.70
2019-04-03T15:17:39.983Z,14.68
2019-04-03T15:20:11.488Z,14.65
2019-04-03T15:22:40.310Z,14.58
2019-04-03T15:25:09.634Z,14.55
2019-04-03T15:27:38.318Z,14.51
2019-04-03T15:30:11.829Z,14.46
2019-04-03T15:32:40.153Z,14.42
2019-04-03T15:35:10.712Z,14.38
2019-04-03T15:37:41.502Z,14.35
2019-04-03T15:40:09.627Z,14.25
2019-04-03T15:42:40.250Z,14.19
2019-04-03T15:45:10.036Z,14.15
2019-04-03T15:47:44.130Z,14.12
2019-04-03T15:50:09.754Z,14.10
2019-04-03T15:52:38.726Z,14.09
2019-04-03T15:55:08.440Z,14.05
2019-04-03T15:57:39.595Z,14.04
2019-04-03T16:00:13.282Z,14.04
2019-04-03T16:02:44.521Z,14.00
2019-04-03T16:05:13.455Z,13.93
2019-04-03T16:07:42.692Z,13.91
2019-04-03T16:10:12.282Z,13.89
2019-04-03T16:12:42.755Z,13.85
2019-04-03T16:15:11.721Z,13.81
2019-04-03T16:17:40.623Z,13.76
2019-04-03T16:20:10.444Z,13.73
2019-04-03T16:22:39.235Z,13.70
2019-04-03T16:25:08.331Z,13.64
2019-04-03T16:27:37.418Z,13.58
2019-04-03T16:30:14.217Z,13.55
2019-04-03T16:32:41.563Z,13.50
2019-04-03T16:35:12.578Z,13.46
2019-04-03T16:37:41.525Z,13.40
2019-04-03T16:40:11.280Z,13.34
2019-04-03T16:42:40.093Z,13.26
2019-04-03T16:45:10.600Z,13.20
2019-04-03T16:47:40.166Z,13.14
2019-04-03T16:50:11.008Z,13.09
2019-04-03T16:52:40.060Z,13.00
2019-04-03T16:55:09.181Z,12.92
2019-04-03T16:57:38.283Z,12.85
2019-04-03T17:00:10.161Z,12.80
2019-04-03T17:02:39.055Z,12.74
2019-04-03T17:05:11.304Z,12.66
2019-04-03T17:07:40.421Z,12.60
2019-04-03T17:10:10.751Z,12.53
2019-04-03T17:12:39.908Z,12.48
2019-04-03T17:15:11.951Z,12.40
2019-04-03T17:17:40.369Z,12.33
2019-04-03T17:20:09.712Z,12.26
2019-04-03T17:22:40.221Z,12.17
2019-04-03T17:25:09.886Z,12.04
2019-04-03T17:27:38.578Z,11.92
2019-04-03T17:30:08.573Z,11.78
2019-04-03T17:32:38.931Z,11.65
2019-04-03T17:35:07.899Z,11.57
2019-04-03T17:37:37.270Z,11.49
2019-04-03T17:40:10.864Z,11.40
2019-04-03T17:42:40.191Z,11.31
2019-04-03T17:45:10.403Z,11.24
2019-04-03T17:47:39.029Z,11.17
2019-04-03T17:50:08.383Z,11.08
2019-04-03T17:52:37.305Z,11.01
2019-04-03T17:55:11.112Z,10.94
2019-04-03T17:57:39.757Z,10.84
2019-04-03T18:00:20.478Z,10.72
2019-04-03T18:02:47.767Z,10.62
2019-04-03T18:05:16.844Z,10.54
2019-04-03T18:07:45.460Z,10.46
2019-04-03T18:10:14.385Z,10.37
2019-04-03T18:12:45.463Z,10.29
2019-04-03T18:15:14.182Z,10.23
2019-04-03T18:17:43.285Z,10.15
2019-04-03T18:20:13.554Z,10.08
2019-04-03T18:22:42.230Z,10.00
2019-04-03T18:25:11.739Z,9.97
2019-04-03T18:27:40.354Z,9.93
2019-04-03T18:30:11.886Z,9.91
2019-04-03T18:32:40.395Z,9.87
2019-04-03T18:35:09.778Z,9.84
2019-04-03T18:37:40.904Z,9.79
2019-04-03T18:40:14.149Z,9.74
2019-04-03T18:42:41.291Z,9.70
2019-04-03T18:45:10.130Z,9.62
2019-04-03T18:47:41.485Z,9.56
2019-04-03T18:50:10.095Z,9.47
2019-04-03T18:52:39.402Z,9.40
2019-04-03T18:55:08.661Z,9.34
2019-04-03T18:57:37.283Z,9.30
2019-04-03T19:00:09.855Z,9.27
2019-04-03T19:02:38.807Z,9.24
2019-04-03T19:05:13.514Z,9.20
2019-04-03T19:07:39.684Z,9.17
2019-04-03T19:10:09.434Z,9.11
2019-04-03T19:12:43.108Z,9.05
2019-04-03T19:15:09.481Z,8.97
2019-04-03T19:17:38.138Z,8.94
2019-04-03T19:20:10.827Z,8.91
2019-04-03T19:22:38.006Z,8.86
2019-04-03T19:25:08.409Z,8.79
2019-04-03T19:27:37.048Z,8.70
2019-04-03T19:30:09.474Z,8.69
2019-04-03T19:32:38.122Z,8.67
2019-04-03T19:35:09.534Z,8.64
2019-04-03T19:37:39.133Z,8.64
2019-04-03T19:40:09.930Z,8.62
2019-04-03T19:42:38.399Z,8.56
2019-04-03T19:45:08.324Z,8.51
2019-04-03T19:47:36.925Z,8.45
2019-04-03T19:50:08.165Z,8.41
2019-04-03T19:52:37.434Z,8.37
2019-04-03T19:55:07.988Z,8.36
2019-04-03T19:57:36.623Z,8.32
2019-04-03T20:00:08.002Z,8.28
2019-04-03T20:02:38.295Z,8.25
2019-04-03T20:05:08.241Z,8.23
2019-04-03T20:07:36.948Z,8.20
2019-04-03T20:10:08.599Z,8.14
2019-04-03T20:12:37.772Z,8.10
2019-04-03T20:15:09.505Z,8.05
2019-04-03T20:17:38.168Z,7.98
2019-04-03T20:20:10.192Z,7.90
2019-04-03T20:22:42.255Z,7.84
2019-04-03T20:25:09.242Z,7.77
2019-04-03T20:27:38.075Z,7.71
2019-04-03T20:30:08.283Z,7.67
2019-04-03T20:32:39.981Z,7.64
2019-04-03T20:35:07.794Z,7.62
2019-04-03T20:37:36.478Z,7.60
2019-04-03T20:40:06.962Z,7.61
2019-04-03T20:42:35.563Z,7.62
2019-04-03T20:45:06.019Z,7.63
2019-04-03T20:47:34.645Z,7.61
2019-04-03T20:50:06.602Z,7.58
2019-04-03T20:52:33.889Z,7.57
2019-04-03T20:55:02.622Z,7.52
2019-04-03T20:57:33.354Z,7.50
2019-04-03T21:00:03.208Z,7.48
2019-04-03T21:02:31.823Z,7.45
2019-04-03T21:05:00.368Z,7.41
2019-04-03T21:07:28.907Z,7.36
2019-04-03T21:10:00.630Z,7.29
2019-04-03T21:12:27.871Z,7.25
2019-04-03T21:15:07.674Z,7.21
2019-04-03T21:17:26.675Z,7.17
2019-04-03T21:19:55.263Z,7.11
2019-04-03T21:22:29.546Z,7.03
2019-04-03T21:24:56.905Z,6.99
2019-04-03T21:27:25.450Z,6.96
2019-04-03T21:29:54.084Z,6.92
2019-04-03T21:32:22.742Z,6.83
2019-04-03T21:34:52.969Z,6.78
2019-04-03T21:37:21.510Z,6.71
2019-04-03T21:39:50.112Z,6.66
2019-04-03T21:42:18.648Z,6.61
2019-04-03T21:44:47.456Z,6.56
2019-04-03T21:47:16.066Z,6.54
2019-04-03T21:49:47.405Z,6.50
2019-04-03T21:52:15.012Z,6.44
2019-04-03T21:54:43.541Z,6.41
2019-04-03T21:57:12.262Z,6.36
2019-04-03T21:59:41.713Z,6.32
2019-04-03T22:02:10.795Z,6.27
2019-04-03T22:04:39.405Z,6.23
2019-04-03T22:07:08.012Z,6.20
2019-04-03T22:09:36.554Z,6.16
2019-04-03T22:12:05.898Z,6.10
2019-04-03T22:14:35.342Z,6.07
2019-04-03T22:17:03.957Z,6.03
2019-04-03T22:19:32.565Z,6.02
2019-04-03T22:22:02.945Z,6.02
2019-04-03T22:24:31.606Z,5.99
2019-04-03T22:27:00.245Z,5.96
2019-04-03T22:29:28.695Z,5.93
2019-04-03T22:31:57.371Z,5.86
2019-04-03T22:34:25.942Z,5.81
2019-04-03T22:36:54.481Z,5.78
2019-04-03T22:39:23.082Z,5.75
2019-04-03T22:41:51.618Z,5.74
2019-04-03T22:44:20.243Z,5.74
2019-04-03T22:46:48.841Z,5.77
2019-04-03T22:49:17.442Z,5.77
2019-04-03T22:51:46.045Z,5.70
2019-04-03T22:54:14.535Z,5.62
2019-04-03T22:56:43.134Z,5.57
2019-04-03T22:59:11.715Z,5.52
2019-04-03T23:01:40.475Z,5.50
2019-04-03T23:04:09.012Z,5.48
2019-04-03T23:06:37.556Z,5.43
2019-04-03T23:09:08.002Z,5.42
2019-04-03T23:11:36.468Z,5.42
2019-04-03T23:14:06.969Z,5.39
2019-04-03T23:16:36.094Z,5.35
2019-04-03T23:19:04.800Z,5.32
2019-04-03T23:21:33.407Z,5.29
2019-04-03T23:24:02.092Z,5.26
2019-04-03T23:26:32.231Z,5.26
2019-04-03T23:29:00.946Z,5.24
2019-04-03T23:31:29.498Z,5.23
2019-04-03T23:33:57.961Z,5.19
2019-04-03T23:36:26.436Z,5.18
2019-04-03T23:38:56.534Z,5.16
2019-04-03T23:41:25.233Z,5.14
2019-04-03T23:43:53.697Z,5.11
2019-04-03T23:46:22.197Z,5.07
2019-04-03T23:48:50.759Z,5.03
2019-04-03T23:51:23.520Z,5.01
2019-04-03T23:53:49.474Z,5.00
2019-04-03T23:56:17.943Z,5.00
2019-04-03T23:58:46.488Z,4.97
